createdAt,value
2022-07-25T00:00:04.344Z,20.44
2022-07-25T00:01:04.259Z,20.44
2022-07-25T00:02:04.124Z,20.38
2022-07-25T00:03:05.141Z,20.38
2022-07-25T00:04:04.571Z,20.38
2022-07-25T00:05:04.330Z,20.38
2022-07-25T00:06:03.753Z,20.38
2022-07-25T00:07:03.872Z,20.38
2022-07-25T00:08:03.915Z,20.31
2022-07-25T00:09:03.935Z,20.31
2022-07-25T00:10:04.343Z,20.31
2022-07-25T00:11:03.988Z,20.31
2022-07-25T00:12:04.168Z,20.31
2022-07-25T00:13:04.083Z,20.31
2022-07-25T00:14:04.425Z,20.31
2022-07-25T00:15:04.101Z,20.25
2022-07-25T00:16:03.702Z,20.25
2022-07-25T00:17:03.677Z,20.25
2022-07-25T00:18:03.678Z,20.25
2022-07-25T00:19:03.859Z,20.19
2022-07-25T00:20:03.775Z,20.19
2022-07-25T00:21:03.758Z,20.19
2022-07-25T00:22:03.836Z,20.12
2022-07-25T00:23:03.909Z,20.12
2022-07-25T00:24:04.273Z,20.12
2022-07-25T00:25:03.992Z,20.12
2022-07-25T00:26:04.078Z,20.12
2022-07-25T00:27:04.232Z,20.12
2022-07-25T00:28:04.313Z,20.06
2022-07-25T00:29:04.398Z,20.06
2022-07-25T00:30:03.436Z,20.06
2022-07-25T00:31:03.630Z,20.06
2022-07-25T00:32:03.692Z,20.06
2022-07-25T00:33:03.525Z,20.00
2022-07-25T00:34:03.804Z,20.00
2022-07-25T00:35:03.527Z,20.00
2022-07-25T00:36:03.585Z,20.00
2022-07-25T00:37:03.604Z,20.06
2022-07-25T00:38:03.511Z,20.00
2022-07-25T00:39:03.595Z,20.00
2022-07-25T00:40:03.676Z,20.00
2022-07-25T00:41:03.674Z,20.00
2022-07-25T00:42:03.851Z,20.00
2022-07-25T00:43:03.843Z,20.00
2022-07-25T00:44:04.092Z,20.00
2022-07-25T00:45:03.931Z,20.00
2022-07-25T00:46:04.025Z,19.94
2022-07-25T00:47:03.914Z,19.94
2022-07-25T00:48:04.085Z,19.94
2022-07-25T00:49:04.134Z,19.94
2022-07-25T00:50:04.163Z,19.94
2022-07-25T00:51:04.230Z,19.94
2022-07-25T00:52:04.330Z,19.94
2022-07-25T00:53:04.463Z,19.94
2022-07-25T00:54:04.573Z,19.94
2022-07-25T00:55:04.327Z,19.94
2022-07-25T00:56:04.479Z,19.94
2022-07-25T00:57:04.477Z,19.94
2022-07-25T00:58:04.496Z,19.94
2022-07-25T00:59:03.606Z,19.94
2022-07-25T01:00:03.609Z,20.00
2022-07-25T01:01:03.535Z,20.00
2022-07-25T01:02:03.760Z,20.00
2022-07-25T01:03:03.805Z,20.06
2022-07-25T01:04:04.101Z,20.00
2022-07-25T01:05:04.210Z,20.00
2022-07-25T01:06:03.834Z,20.00
2022-07-25T01:07:03.767Z,20.00
2022-07-25T01:08:03.849Z,20.00
2022-07-25T01:09:03.841Z,20.00
2022-07-25T01:10:03.915Z,20.00
2022-07-25T01:11:03.999Z,20.00
2022-07-25T01:12:04.189Z,20.00
2022-07-25T01:13:04.335Z,20.00
2022-07-25T01:14:04.437Z,20.00
2022-07-25T01:15:04.236Z,20.00
2022-07-25T01:16:04.372Z,20.00
2022-07-25T01:17:04.398Z,20.00
2022-07-25T01:18:03.514Z,20.00
2022-07-25T01:19:04.492Z,20.00
2022-07-25T01:20:03.605Z,20.00
2022-07-25T01:21:03.693Z,20.00
2022-07-25T01:22:03.594Z,20.00
2022-07-25T01:23:03.605Z,20.00
2022-07-25T01:24:03.981Z,20.00
2022-07-25T01:25:03.675Z,20.00
2022-07-25T01:26:03.931Z,19.94
2022-07-25T01:27:03.878Z,19.94
2022-07-25T01:28:03.868Z,20.00
2022-07-25T01:29:03.832Z,20.00
2022-07-25T01:30:03.933Z,20.00
2022-07-25T01:31:03.973Z,20.00
2022-07-25T01:32:03.988Z,19.94
2022-07-25T01:33:06.589Z,19.94
2022-07-25T01:34:04.516Z,19.94
2022-07-25T01:35:04.235Z,19.94
2022-07-25T01:36:04.261Z,19.94
2022-07-25T01:37:04.325Z,19.94
2022-07-25T01:38:04.392Z,19.94
2022-07-25T01:39:04.495Z,19.94
2022-07-25T01:40:04.455Z,19.94
2022-07-25T01:41:03.532Z,19.94
2022-07-25T01:42:03.526Z,19.94
2022-07-25T01:43:03.442Z,19.94
2022-07-25T01:44:03.897Z,19.94
2022-07-25T01:45:03.519Z,19.94
2022-07-25T01:46:03.831Z,19.94
2022-07-25T01:47:03.760Z,19.94
2022-07-25T01:48:03.760Z,19.94
2022-07-25T01:49:03.782Z,19.94
2022-07-25T01:50:03.701Z,19.94
2022-07-25T01:51:03.693Z,19.94
2022-07-25T01:52:03.838Z,19.94
2022-07-25T01:53:03.518Z,19.88
2022-07-25T01:54:03.825Z,19.94
2022-07-25T01:55:04.529Z,19.88
2022-07-25T01:56:03.527Z,19.88
2022-07-25T01:57:03.594Z,19.88
2022-07-25T01:58:03.541Z,19.88
2022-07-25T01:59:03.597Z,19.88
2022-07-25T02:00:03.758Z,19.88
2022-07-25T02:01:03.868Z,19.88
2022-07-25T02:02:04.331Z,19.81
2022-07-25T02:03:04.074Z,19.88
2022-07-25T02:04:04.588Z,19.81
2022-07-25T02:05:04.211Z,19.81
2022-07-25T02:06:04.161Z,19.81
2022-07-25T02:07:04.252Z,19.81
2022-07-25T02:08:04.317Z,19.81
2022-07-25T02:09:04.327Z,19.81
2022-07-25T02:10:04.313Z,19.81
2022-07-25T02:11:04.322Z,19.81
2022-07-25T02:12:04.492Z,19.81
2022-07-25T02:13:04.389Z,19.81
2022-07-25T02:14:04.714Z,19.81
2022-07-25T02:15:04.484Z,19.81
2022-07-25T02:16:04.401Z,19.81
2022-07-25T02:17:04.531Z,19.81
2022-07-25T02:18:03.450Z,19.75
2022-07-25T02:19:03.519Z,19.75
2022-07-25T02:20:03.596Z,19.75
2022-07-25T02:21:03.601Z,19.75
2022-07-25T02:22:03.691Z,19.75
2022-07-25T02:23:03.751Z,19.75
2022-07-25T02:24:04.139Z,19.75
2022-07-25T02:25:03.927Z,19.75
2022-07-25T02:26:03.995Z,19.75
2022-07-25T02:27:04.079Z,19.75
2022-07-25T02:28:03.991Z,19.69
2022-07-25T02:29:03.990Z,19.75
2022-07-25T02:30:04.143Z,19.75
2022-07-25T02:31:04.288Z,19.69
2022-07-25T02:32:04.250Z,19.75
2022-07-25T02:33:04.230Z,19.69
2022-07-25T02:34:04.503Z,19.69
2022-07-25T02:35:03.600Z,19.69
2022-07-25T02:36:03.686Z,19.69
2022-07-25T02:37:03.693Z,19.69
2022-07-25T02:38:03.772Z,19.69
2022-07-25T02:39:03.925Z,19.62
2022-07-25T02:40:03.998Z,19.69
2022-07-25T02:41:03.911Z,19.69
2022-07-25T02:42:04.234Z,19.62
2022-07-25T02:43:04.410Z,19.62
2022-07-25T02:44:04.680Z,19.62
2022-07-25T02:45:04.660Z,19.62
2022-07-25T02:46:04.531Z,19.69
2022-07-25T02:47:04.352Z,19.69
2022-07-25T02:48:05.771Z,19.69
2022-07-25T02:49:03.723Z,19.62
2022-07-25T02:50:03.692Z,19.62
2022-07-25T02:51:03.751Z,19.69
2022-07-25T02:52:03.905Z,19.62
2022-07-25T02:53:03.756Z,19.62
2022-07-25T02:54:03.756Z,19.62
2022-07-25T02:55:09.044Z,19.62
2022-07-25T02:56:03.814Z,19.62
2022-07-25T02:57:03.683Z,19.56
2022-07-25T02:58:03.688Z,19.62
2022-07-25T02:59:03.756Z,19.62
2022-07-25T03:00:03.781Z,19.62
2022-07-25T03:01:03.970Z,19.62
2022-07-25T03:02:04.128Z,19.62
2022-07-25T03:03:03.934Z,19.56
2022-07-25T03:04:04.382Z,19.56
2022-07-25T03:05:04.007Z,19.56
2022-07-25T03:06:03.992Z,19.56
2022-07-25T03:07:04.105Z,19.56
2022-07-25T03:08:04.095Z,19.56
2022-07-25T03:09:04.197Z,19.56
2022-07-25T03:10:08.679Z,19.56
2022-07-25T03:11:04.312Z,19.56
2022-07-25T03:12:04.395Z,19.56
2022-07-25T03:13:03.516Z,19.50
2022-07-25T03:14:03.732Z,19.56
2022-07-25T03:15:03.685Z,19.50
2022-07-25T03:16:03.682Z,19.56
2022-07-25T03:17:03.820Z,19.56
2022-07-25T03:18:03.858Z,19.56
2022-07-25T03:19:03.846Z,19.50
2022-07-25T03:20:03.920Z,19.50
2022-07-25T03:21:03.991Z,19.50
2022-07-25T03:22:04.092Z,19.50
2022-07-25T03:23:04.079Z,19.50
2022-07-25T03:24:04.355Z,19.50
2022-07-25T03:25:04.394Z,19.50
2022-07-25T03:26:04.396Z,19.50
2022-07-25T03:27:04.593Z,19.50
2022-07-25T03:28:04.395Z,19.50
2022-07-25T03:29:03.604Z,19.44
2022-07-25T03:30:03.512Z,19.44
2022-07-25T03:31:03.505Z,19.44
2022-07-25T03:32:03.591Z,19.44
2022-07-25T03:33:03.521Z,19.44
2022-07-25T03:34:03.690Z,19.44
2022-07-25T03:35:03.595Z,19.44
2022-07-25T03:36:03.674Z,19.44
2022-07-25T03:37:03.749Z,19.44
2022-07-25T03:38:03.757Z,19.44
2022-07-25T03:39:05.412Z,19.44
2022-07-25T03:40:03.845Z,19.38
2022-07-25T03:41:03.768Z,19.38
2022-07-25T03:42:03.933Z,19.38
2022-07-25T03:43:04.004Z,19.38
2022-07-25T03:44:04.447Z,19.38
2022-07-25T03:45:04.077Z,19.38
2022-07-25T03:46:04.336Z,19.38
2022-07-25T03:47:04.339Z,19.38
2022-07-25T03:48:04.232Z,19.38
2022-07-25T03:49:04.454Z,19.38
2022-07-25T03:50:04.408Z,19.38
2022-07-25T03:51:06.984Z,19.44
2022-07-25T03:52:03.591Z,19.44
2022-07-25T03:53:03.919Z,19.44
2022-07-25T03:54:04.573Z,19.44
2022-07-25T03:55:04.324Z,19.44
2022-07-25T03:56:04.229Z,19.44
2022-07-25T03:57:04.403Z,19.44
2022-07-25T03:58:04.394Z,19.44
2022-07-25T03:59:03.442Z,19.44
2022-07-25T04:00:03.585Z,19.44
2022-07-25T04:01:03.793Z,19.44
2022-07-25T04:02:04.558Z,19.44
2022-07-25T04:03:03.584Z,19.44
2022-07-25T04:04:03.674Z,19.50
2022-07-25T04:05:03.595Z,19.50
2022-07-25T04:06:03.678Z,19.50
2022-07-25T04:07:03.609Z,19.50
2022-07-25T04:08:03.670Z,19.50
2022-07-25T04:09:03.824Z,19.56
2022-07-25T04:10:03.818Z,19.50
2022-07-25T04:11:03.919Z,19.50
2022-07-25T04:12:04.078Z,19.56
2022-07-25T04:13:04.092Z,19.56
2022-07-25T04:14:04.394Z,19.56
2022-07-25T04:15:04.080Z,19.62
2022-07-25T04:16:04.193Z,19.75
2022-07-25T04:17:04.431Z,19.81
2022-07-25T04:18:04.367Z,19.81
2022-07-25T04:19:04.390Z,19.88
2022-07-25T04:20:05.604Z,19.94
2022-07-25T04:21:03.679Z,20.06
2022-07-25T04:22:03.602Z,20.12
2022-07-25T04:23:03.605Z,20.25
2022-07-25T04:24:03.992Z,20.31
2022-07-25T04:25:03.916Z,20.44
2022-07-25T04:26:03.946Z,20.56
2022-07-25T04:27:04.092Z,20.69
2022-07-25T04:28:04.164Z,20.88
2022-07-25T04:29:03.996Z,21.00
2022-07-25T04:30:04.072Z,21.12
2022-07-25T04:31:03.727Z,21.25
2022-07-25T04:32:03.812Z,21.38
2022-07-25T04:33:03.835Z,21.44
2022-07-25T04:34:04.115Z,21.56
2022-07-25T04:35:03.827Z,21.62
2022-07-25T04:36:04.024Z,21.69
2022-07-25T04:37:03.994Z,21.75
2022-07-25T04:38:06.541Z,21.94
2022-07-25T04:39:03.921Z,22.06
2022-07-25T04:40:03.926Z,22.19
2022-07-25T04:41:03.925Z,22.38
2022-07-25T04:42:04.027Z,22.56
2022-07-25T04:43:03.919Z,22.75
2022-07-25T04:44:04.320Z,22.94
2022-07-25T04:45:04.072Z,23.12
2022-07-25T04:46:04.202Z,23.31
2022-07-25T04:47:04.240Z,23.56
2022-07-25T04:48:04.240Z,23.75
2022-07-25T04:49:04.329Z,24.00
2022-07-25T04:50:04.313Z,24.19
2022-07-25T04:51:04.337Z,24.38
2022-07-25T04:52:05.692Z,24.56
2022-07-25T04:53:03.758Z,24.75
2022-07-25T04:54:04.074Z,25.00
2022-07-25T04:55:03.763Z,25.19
2022-07-25T04:56:03.921Z,25.44
2022-07-25T04:57:03.999Z,25.62
2022-07-25T04:58:04.073Z,25.81
2022-07-25T04:59:06.637Z,26.06
2022-07-25T05:00:04.104Z,26.25
2022-07-25T05:01:04.263Z,26.50
2022-07-25T05:02:04.296Z,26.69
2022-07-25T05:03:04.226Z,26.94
2022-07-25T05:04:04.533Z,27.12
2022-07-25T05:05:04.240Z,27.31
2022-07-25T05:06:04.231Z,27.56
2022-07-25T05:07:04.381Z,27.75
2022-07-25T05:08:04.322Z,28.00
2022-07-25T05:09:03.523Z,28.19
2022-07-25T05:10:03.532Z,28.38
2022-07-25T05:11:03.534Z,28.62
2022-07-25T05:12:03.606Z,28.88
2022-07-25T05:13:03.538Z,29.06
2022-07-25T05:14:03.796Z,29.31
2022-07-25T05:15:03.596Z,29.56
2022-07-25T05:16:03.740Z,29.88
2022-07-25T05:17:03.847Z,30.19
2022-07-25T05:18:03.845Z,30.44
2022-07-25T05:19:03.851Z,30.62
2022-07-25T05:20:03.748Z,31.00
2022-07-25T05:21:03.835Z,31.44
2022-07-25T05:22:03.760Z,31.81
2022-07-25T05:23:03.755Z,32.31
2022-07-25T05:24:04.109Z,32.75
2022-07-25T05:25:03.838Z,33.19
2022-07-25T05:26:03.842Z,33.69
2022-07-25T05:27:03.918Z,34.12
2022-07-25T05:28:04.027Z,34.62
2022-07-25T05:29:04.020Z,35.06
2022-07-25T05:30:04.089Z,35.44
2022-07-25T05:31:04.448Z,35.88
2022-07-25T05:32:03.545Z,36.25
2022-07-25T05:33:03.531Z,36.56
2022-07-25T05:34:03.903Z,36.75
2022-07-25T05:35:03.616Z,37.00
2022-07-25T05:36:03.609Z,37.19
2022-07-25T05:37:03.591Z,37.31
2022-07-25T05:38:03.714Z,37.50
2022-07-25T05:39:03.841Z,37.69
2022-07-25T05:40:04.175Z,37.69
2022-07-25T05:41:03.935Z,38.06
2022-07-25T05:42:03.783Z,38.19
2022-07-25T05:43:08.883Z,38.31
2022-07-25T05:44:04.127Z,38.44
2022-07-25T05:45:03.925Z,38.50
2022-07-25T05:46:03.852Z,38.62
2022-07-25T05:47:04.122Z,38.56
2022-07-25T05:48:03.991Z,38.69
2022-07-25T05:49:04.126Z,38.75
2022-07-25T05:50:04.179Z,38.81
2022-07-25T05:51:04.168Z,38.94
2022-07-25T05:52:09.645Z,39.06
2022-07-25T05:53:04.152Z,39.19
2022-07-25T05:54:04.726Z,39.25
2022-07-25T05:55:04.506Z,39.38
2022-07-25T05:56:04.419Z,39.31
2022-07-25T05:57:04.382Z,39.25
2022-07-25T05:58:04.495Z,39.38
2022-07-25T05:59:03.442Z,39.50
2022-07-25T06:00:03.593Z,39.62
2022-07-25T06:01:03.520Z,39.56
2022-07-25T06:02:03.568Z,39.62
2022-07-25T06:03:03.638Z,39.69
2022-07-25T06:04:03.955Z,39.81
2022-07-25T06:05:03.682Z,39.81
2022-07-25T06:06:03.745Z,39.94
2022-07-25T06:07:03.852Z,40.06
2022-07-25T06:08:03.852Z,40.12
2022-07-25T06:09:03.845Z,40.25
2022-07-25T06:10:03.940Z,40.19
2022-07-25T06:11:03.928Z,40.25
2022-07-25T06:12:04.015Z,40.38
2022-07-25T06:13:04.004Z,40.31
2022-07-25T06:14:04.295Z,40.19
2022-07-25T06:15:03.948Z,40.19
2022-07-25T06:16:04.174Z,39.94
2022-07-25T06:17:04.112Z,39.88
2022-07-25T06:18:04.236Z,39.81
2022-07-25T06:19:04.152Z,39.81
2022-07-25T06:20:04.082Z,39.75
2022-07-25T06:21:04.178Z,39.50
2022-07-25T06:22:04.252Z,39.38
2022-07-25T06:23:04.253Z,39.38
2022-07-25T06:24:04.667Z,39.44
2022-07-25T06:25:04.339Z,39.19
2022-07-25T06:26:04.467Z,39.00
2022-07-25T06:27:03.532Z,38.75
2022-07-25T06:28:03.611Z,38.50
2022-07-25T06:29:03.613Z,38.25
2022-07-25T06:30:03.620Z,38.31
2022-07-25T06:31:03.749Z,38.38
2022-07-25T06:32:03.843Z,38.56
2022-07-25T06:33:03.930Z,38.56
2022-07-25T06:34:04.272Z,38.62
2022-07-25T06:35:04.084Z,38.69
2022-07-25T06:36:04.085Z,38.81
2022-07-25T06:37:04.009Z,38.94
2022-07-25T06:38:04.089Z,38.88
2022-07-25T06:39:04.087Z,38.62
2022-07-25T06:40:04.275Z,38.56
2022-07-25T06:41:04.181Z,38.44
2022-07-25T06:42:04.159Z,38.44
2022-07-25T06:43:04.161Z,38.38
2022-07-25T06:44:04.445Z,38.38
2022-07-25T06:45:04.254Z,38.50
2022-07-25T06:46:04.219Z,38.56
2022-07-25T06:47:04.410Z,38.56
2022-07-25T06:48:04.395Z,38.56
2022-07-25T06:49:03.548Z,38.56
2022-07-25T06:50:03.527Z,38.75
2022-07-25T06:51:03.604Z,38.75
2022-07-25T06:52:03.592Z,38.81
2022-07-25T06:53:03.614Z,38.81
2022-07-25T06:54:03.920Z,38.88
2022-07-25T06:55:03.603Z,38.75
2022-07-25T06:56:03.610Z,38.75
2022-07-25T06:57:03.600Z,38.75
2022-07-25T06:58:03.670Z,38.75
2022-07-25T06:59:03.674Z,38.75
2022-07-25T07:00:03.690Z,38.75
2022-07-25T07:01:03.897Z,38.69
2022-07-25T07:02:03.690Z,38.81
2022-07-25T07:03:03.739Z,38.88
2022-07-25T07:04:04.026Z,38.94
2022-07-25T07:05:03.754Z,39.00
2022-07-25T07:06:03.841Z,39.00
2022-07-25T07:07:03.842Z,39.00
2022-07-25T07:08:03.931Z,39.06
2022-07-25T07:09:04.016Z,39.00
2022-07-25T07:10:03.921Z,39.00
2022-07-25T07:11:04.007Z,39.00
2022-07-25T07:12:04.091Z,38.94
2022-07-25T07:13:04.009Z,38.94
2022-07-25T07:14:04.264Z,38.94
2022-07-25T07:15:04.089Z,38.94
2022-07-25T07:16:04.230Z,38.94
2022-07-25T07:17:04.411Z,38.94
2022-07-25T07:18:04.332Z,39.00
2022-07-25T07:19:04.812Z,38.94
2022-07-25T07:20:04.395Z,39.00
2022-07-25T07:21:03.515Z,39.00
2022-07-25T07:22:03.523Z,39.06
2022-07-25T07:23:04.474Z,39.12
2022-07-25T07:24:03.429Z,39.19
2022-07-25T07:25:04.411Z,39.12
2022-07-25T07:26:03.601Z,39.12
2022-07-25T07:27:03.592Z,39.19
2022-07-25T07:28:03.528Z,39.25
2022-07-25T07:29:04.778Z,39.25
2022-07-25T07:30:03.600Z,39.12
2022-07-25T07:31:16.029Z,39.06
2022-07-25T07:32:04.655Z,39.00
2022-07-25T07:33:03.693Z,39.00
2022-07-25T07:34:03.754Z,38.94
2022-07-25T07:35:03.763Z,38.88
2022-07-25T07:36:03.774Z,38.94
2022-07-25T07:37:03.759Z,38.88
2022-07-25T07:38:03.760Z,38.88
2022-07-25T07:39:04.087Z,38.88
2022-07-25T07:40:03.841Z,38.88
2022-07-25T07:41:04.395Z,38.81
2022-07-25T07:42:04.398Z,38.81
2022-07-25T07:43:04.395Z,38.81
2022-07-25T07:44:04.397Z,38.75
2022-07-25T07:45:04.478Z,38.81
2022-07-25T07:46:03.574Z,38.81
2022-07-25T07:47:03.566Z,38.75
2022-07-25T07:48:03.520Z,38.62
2022-07-25T07:49:03.847Z,38.56
2022-07-25T07:50:03.516Z,38.56
2022-07-25T07:51:03.518Z,38.56
2022-07-25T07:52:03.508Z,38.62
2022-07-25T07:53:03.608Z,38.56
2022-07-25T07:54:03.596Z,38.56
2022-07-25T07:55:03.601Z,38.50
2022-07-25T07:56:03.668Z,38.44
2022-07-25T07:57:03.759Z,38.31
2022-07-25T07:58:03.769Z,38.25
2022-07-25T07:59:04.066Z,38.25
2022-07-25T08:00:03.929Z,38.19
2022-07-25T08:01:03.942Z,38.12
2022-07-25T08:02:03.973Z,38.19
2022-07-25T08:03:04.057Z,38.19
2022-07-25T08:04:03.898Z,38.19
2022-07-25T08:05:03.933Z,38.31
2022-07-25T08:06:03.923Z,38.31
2022-07-25T08:07:03.851Z,38.31
2022-07-25T08:08:04.010Z,38.31
2022-07-25T08:09:04.352Z,38.25
2022-07-25T08:10:03.925Z,38.31
2022-07-25T08:11:03.918Z,38.38
2022-07-25T08:12:04.074Z,38.31
2022-07-25T08:13:04.163Z,38.12
2022-07-25T08:14:04.536Z,38.06
2022-07-25T08:15:04.332Z,38.00
2022-07-25T08:16:04.398Z,37.94
2022-07-25T08:17:04.424Z,37.88
2022-07-25T08:18:03.557Z,37.75
2022-07-25T08:19:03.508Z,37.69
2022-07-25T08:20:20.881Z,37.75
2022-07-25T08:21:03.608Z,37.81
2022-07-25T08:22:03.600Z,37.75
2022-07-25T08:23:03.537Z,37.75
2022-07-25T08:24:03.919Z,37.69
2022-07-25T08:25:03.615Z,37.69
2022-07-25T08:26:03.849Z,37.69
2022-07-25T08:27:03.771Z,37.62
2022-07-25T08:28:03.675Z,37.62
2022-07-25T08:29:17.388Z,37.56
2022-07-25T08:30:03.911Z,37.56
2022-07-25T08:31:04.105Z,37.44
2022-07-25T08:32:04.082Z,37.44
2022-07-25T08:33:04.000Z,37.44
2022-07-25T08:34:04.560Z,37.50
2022-07-25T08:35:07.025Z,37.44
2022-07-25T08:36:04.152Z,37.38
2022-07-25T08:37:04.160Z,37.38
2022-07-25T08:38:04.167Z,37.31
2022-07-25T08:39:05.053Z,37.31
2022-07-25T08:40:04.159Z,37.31
2022-07-25T08:41:04.177Z,37.31
2022-07-25T08:42:07.785Z,37.31
2022-07-25T08:43:04.155Z,37.31
2022-07-25T08:44:04.536Z,37.25
2022-07-25T08:45:04.238Z,37.25
2022-07-25T08:46:04.479Z,37.19
2022-07-25T08:47:03.533Z,37.12
2022-07-25T08:48:03.515Z,37.12
2022-07-25T08:49:03.558Z,37.06
2022-07-25T08:50:04.483Z,37.12
2022-07-25T08:51:03.604Z,37.12
2022-07-25T08:52:03.612Z,37.06
2022-07-25T08:53:31.319Z,37.06
2022-07-25T08:54:03.730Z,37.06
2022-07-25T08:55:03.700Z,37.00
2022-07-25T08:56:09.924Z,37.00
2022-07-25T08:57:03.667Z,36.94
2022-07-25T08:58:03.671Z,36.94
2022-07-25T08:59:03.608Z,36.94
2022-07-25T09:00:03.671Z,36.94
2022-07-25T09:01:03.675Z,36.88
2022-07-25T09:02:03.858Z,36.88
2022-07-25T09:03:03.867Z,36.81
2022-07-25T09:04:04.268Z,36.75
2022-07-25T09:05:04.001Z,36.75
2022-07-25T09:06:04.010Z,36.75
2022-07-25T09:07:07.778Z,36.69
2022-07-25T09:08:04.082Z,36.69
2022-07-25T09:09:04.162Z,36.69
2022-07-25T09:10:04.180Z,36.69
2022-07-25T09:11:04.167Z,36.69
2022-07-25T09:12:04.318Z,36.62
2022-07-25T09:13:04.259Z,36.62
2022-07-25T09:14:04.984Z,36.62
2022-07-25T09:15:03.526Z,36.56
2022-07-25T09:16:03.698Z,36.50
2022-07-25T09:17:03.675Z,36.50
2022-07-25T09:18:03.750Z,36.44
2022-07-25T09:19:03.760Z,36.31
2022-07-25T09:20:03.846Z,36.31
2022-07-25T09:21:03.924Z,36.31
2022-07-25T09:22:04.138Z,36.31
2022-07-25T09:23:03.843Z,36.31
2022-07-25T09:24:04.385Z,36.31
2022-07-25T09:25:03.998Z,36.31
2022-07-25T09:26:04.064Z,36.31
2022-07-25T09:27:04.116Z,36.25
2022-07-25T09:28:04.155Z,36.19
2022-07-25T09:29:04.241Z,36.19
2022-07-25T09:30:05.211Z,36.19
2022-07-25T09:31:04.400Z,36.19
2022-07-25T09:32:04.387Z,36.19
2022-07-25T09:33:03.535Z,36.19
2022-07-25T09:34:03.704Z,36.12
2022-07-25T09:35:03.523Z,36.12
2022-07-25T09:36:03.673Z,36.06
2022-07-25T09:37:03.628Z,36.06
2022-07-25T09:38:03.693Z,36.00
2022-07-25T09:39:03.629Z,35.88
2022-07-25T09:40:03.595Z,35.88
2022-07-25T09:41:03.844Z,35.88
2022-07-25T09:42:03.757Z,35.81
2022-07-25T09:43:03.832Z,35.75
2022-07-25T09:44:04.119Z,35.75
2022-07-25T09:45:04.244Z,35.75
2022-07-25T09:46:04.284Z,35.75
2022-07-25T09:47:04.392Z,35.75
2022-07-25T09:48:04.393Z,35.81
2022-07-25T09:49:04.528Z,35.81
2022-07-25T09:50:03.501Z,35.81
2022-07-25T09:51:03.583Z,35.81
2022-07-25T09:52:03.591Z,35.81
2022-07-25T09:53:03.680Z,35.75
2022-07-25T09:54:03.795Z,35.69
2022-07-25T09:55:03.597Z,35.69
2022-07-25T09:56:03.590Z,35.62
2022-07-25T09:57:03.512Z,35.62
2022-07-25T09:58:03.678Z,35.62
2022-07-25T09:59:03.745Z,35.56
2022-07-25T10:00:03.744Z,35.50
2022-07-25T10:01:03.812Z,35.50
2022-07-25T10:02:04.098Z,35.50
2022-07-25T10:03:04.177Z,35.56
2022-07-25T10:04:04.258Z,35.56
2022-07-25T10:05:04.156Z,35.56
2022-07-25T10:06:04.254Z,35.56
2022-07-25T10:07:04.251Z,35.62
2022-07-25T10:08:04.242Z,35.62
2022-07-25T10:09:04.248Z,35.62
2022-07-25T10:10:04.320Z,35.56
2022-07-25T10:11:04.235Z,35.50
2022-07-25T10:12:04.414Z,35.50
2022-07-25T10:13:08.005Z,35.50
2022-07-25T10:14:03.714Z,35.56
2022-07-25T10:15:04.476Z,35.56
2022-07-25T10:16:03.435Z,35.50
2022-07-25T10:17:03.665Z,35.50
2022-07-25T10:18:03.607Z,35.44
2022-07-25T10:19:03.590Z,35.38
2022-07-25T10:20:03.673Z,35.38
2022-07-25T10:21:13.556Z,35.38
2022-07-25T10:22:03.666Z,35.31
2022-07-25T10:23:03.776Z,35.31
2022-07-25T10:24:04.443Z,35.31
2022-07-25T10:25:03.912Z,35.31
2022-07-25T10:26:03.918Z,35.31
2022-07-25T10:27:03.995Z,35.31
2022-07-25T10:28:04.075Z,35.31
2022-07-25T10:29:03.992Z,35.38
2022-07-25T10:30:04.111Z,35.38
2022-07-25T10:31:04.208Z,35.38
2022-07-25T10:32:04.167Z,35.44
2022-07-25T10:33:04.079Z,35.44
2022-07-25T10:34:04.377Z,35.44
2022-07-25T10:35:04.155Z,35.44
2022-07-25T10:36:04.109Z,35.44
2022-07-25T10:37:04.234Z,35.44
2022-07-25T10:38:04.320Z,35.44
2022-07-25T10:39:04.385Z,35.44
2022-07-25T10:40:04.475Z,35.44
2022-07-25T10:41:03.418Z,35.44
2022-07-25T10:42:03.599Z,35.50
2022-07-25T10:43:03.685Z,35.50
2022-07-25T10:44:03.781Z,35.56
2022-07-25T10:45:03.829Z,35.56
2022-07-25T10:46:03.921Z,35.56
2022-07-25T10:47:03.899Z,35.56
2022-07-25T10:48:03.934Z,35.62
2022-07-25T10:49:04.297Z,35.62
2022-07-25T10:50:21.796Z,35.62
2022-07-25T10:51:03.924Z,35.56
2022-07-25T10:52:03.906Z,35.56
2022-07-25T10:53:03.918Z,35.50
2022-07-25T10:54:03.937Z,35.50
2022-07-25T10:55:03.839Z,35.50
2022-07-25T10:56:05.568Z,35.50
2022-07-25T10:57:03.930Z,35.50
2022-07-25T10:58:16.918Z,35.50
2022-07-25T10:59:04.428Z,35.50
2022-07-25T11:00:04.011Z,35.50
2022-07-25T11:01:04.021Z,35.56
2022-07-25T11:02:04.175Z,35.56
2022-07-25T11:03:04.212Z,35.56
2022-07-25T11:04:04.176Z,35.62
2022-07-25T11:05:04.325Z,35.62
2022-07-25T11:06:05.284Z,35.69
2022-07-25T11:07:03.919Z,35.69
2022-07-25T11:08:20.976Z,35.75
2022-07-25T11:09:04.334Z,35.75
2022-07-25T11:10:04.082Z,35.75
2022-07-25T11:11:04.161Z,35.81
2022-07-25T11:12:04.232Z,35.81
2022-07-25T11:13:04.240Z,35.81
2022-07-25T11:14:04.235Z,35.81
2022-07-25T11:15:04.165Z,35.75
2022-07-25T11:16:04.248Z,35.75
2022-07-25T11:17:04.288Z,35.81
2022-07-25T11:18:04.329Z,35.75
2022-07-25T11:19:04.711Z,35.75
2022-07-25T11:20:04.319Z,35.75
2022-07-25T11:21:06.397Z,35.75
2022-07-25T11:22:03.521Z,35.75
2022-07-25T11:23:03.594Z,35.75
2022-07-25T11:24:03.587Z,35.81
2022-07-25T11:25:03.594Z,35.88
2022-07-25T11:26:03.685Z,35.88
2022-07-25T11:27:06.146Z,35.88
2022-07-25T11:28:03.855Z,35.88
2022-07-25T11:29:04.307Z,35.88
2022-07-25T11:30:03.926Z,35.94
2022-07-25T11:31:03.994Z,35.94
2022-07-25T11:32:03.984Z,36.00
2022-07-25T11:33:03.994Z,36.00
2022-07-25T11:34:04.067Z,36.06
2022-07-25T11:35:04.307Z,36.06
2022-07-25T11:36:04.393Z,36.06
2022-07-25T11:37:03.600Z,36.06
2022-07-25T11:38:03.770Z,36.12
2022-07-25T11:39:03.958Z,36.12
2022-07-25T11:40:03.677Z,36.19
2022-07-25T11:41:03.702Z,36.19
2022-07-25T11:42:03.670Z,36.19
2022-07-25T11:43:03.764Z,36.25
2022-07-25T11:44:03.753Z,36.25
2022-07-25T11:45:03.836Z,36.31
2022-07-25T11:46:03.912Z,36.31
2022-07-25T11:47:03.835Z,36.31
2022-07-25T11:48:04.007Z,36.31
2022-07-25T11:49:04.242Z,36.38
2022-07-25T11:50:04.067Z,36.38
2022-07-25T11:51:04.147Z,36.38
2022-07-25T11:52:04.394Z,36.44
2022-07-25T11:53:04.410Z,36.38
2022-07-25T11:54:04.409Z,36.38
2022-07-25T11:55:04.390Z,36.38
2022-07-25T11:56:19.658Z,36.38
2022-07-25T11:57:03.827Z,36.38
2022-07-25T11:58:03.751Z,36.38
2022-07-25T11:59:03.934Z,36.38
2022-07-25T12:00:03.741Z,36.38
2022-07-25T12:01:03.908Z,36.44
2022-07-25T12:02:04.089Z,36.38
2022-07-25T12:03:04.109Z,36.44
2022-07-25T12:04:04.482Z,36.44
2022-07-25T12:05:04.469Z,36.44
2022-07-25T12:06:03.512Z,36.44
2022-07-25T12:07:03.682Z,36.44
2022-07-25T12:08:03.606Z,36.44
2022-07-25T12:09:03.836Z,36.44
2022-07-25T12:10:03.596Z,36.38
2022-07-25T12:11:03.677Z,36.31
2022-07-25T12:12:03.678Z,36.31
2022-07-25T12:13:03.683Z,36.31
2022-07-25T12:14:03.590Z,36.31
2022-07-25T12:15:03.649Z,36.31
2022-07-25T12:16:03.689Z,36.38
2022-07-25T12:17:03.783Z,36.38
2022-07-25T12:18:03.665Z,36.44
2022-07-25T12:19:04.022Z,36.44
2022-07-25T12:20:06.696Z,36.44
2022-07-25T12:21:03.596Z,36.50
2022-07-25T12:22:03.592Z,36.50
2022-07-25T12:23:03.602Z,36.50
2022-07-25T12:24:03.506Z,36.50
2022-07-25T12:25:03.592Z,36.50
2022-07-25T12:26:03.674Z,36.50
2022-07-25T12:27:03.707Z,36.56
2022-07-25T12:28:03.757Z,36.56
2022-07-25T12:29:03.954Z,36.56
2022-07-25T12:30:03.809Z,36.62
2022-07-25T12:31:04.028Z,36.62
2022-07-25T12:32:04.072Z,36.62
2022-07-25T12:33:04.160Z,36.69
2022-07-25T12:34:04.224Z,36.69
2022-07-25T12:35:04.329Z,36.69
2022-07-25T12:36:08.377Z,36.69
2022-07-25T12:37:04.397Z,36.69
2022-07-25T12:38:03.675Z,36.69
2022-07-25T12:39:03.789Z,36.75
2022-07-25T12:40:03.691Z,36.75
2022-07-25T12:41:03.675Z,36.75
2022-07-25T12:42:03.744Z,36.75
2022-07-25T12:43:03.847Z,36.81
2022-07-25T12:44:03.759Z,36.75
2022-07-25T12:45:03.843Z,36.81
2022-07-25T12:46:03.972Z,36.81
2022-07-25T12:47:03.924Z,36.81
2022-07-25T12:48:03.881Z,36.88
2022-07-25T12:49:04.019Z,36.88
2022-07-25T12:50:03.834Z,36.94
2022-07-25T12:51:03.910Z,36.94
2022-07-25T12:52:03.930Z,36.94